sensor_id;sensor_type;location;lat;lon;timestamp;P1;durP1;ratioP1;P2;durP2;ratioP2
26540;SDS011;14206;50.202;10.948;2022-09-13T00:00:51;3.20;;;2.90;;
26540;SDS011;14206;50.202;10.948;2022-09-13T00:03:19;3.17;;;2.83;;
26540;SDS011;14206;50.202;10.948;2022-09-13T00:05:46;2.88;;;2.60;;
26540;SDS011;14206;50.202;10.948;2022-09-13T00:08:13;3.00;;;2.65;;
26540;SDS011;14206;50.202;10.948;2022-09-13T00:10:41;3.10;;;2.70;;
26540;SDS011;14206;50.202;10.948;2022-09-13T00:13:09;3.40;;;2.85;;
26540;SDS011;14206;50.202;10.948;2022-09-13T00:15:41;2.70;;;2.50;;
26540;SDS011;14206;50.202;10.948;2022-09-13T00:18:09;3.88;;;2.40;;
26540;SDS011;14206;50.202;10.948;2022-09-13T00:20:36;2.70;;;2.50;;
26540;SDS011;14206;50.202;10.948;2022-09-13T00:23:03;3.20;;;2.60;;
26540;SDS011;14206;50.202;10.948;2022-09-13T00:25:30;2.90;;;2.70;;
26540;SDS011;14206;50.202;10.948;2022-09-13T00:27:57;3.33;;;2.63;;
26540;SDS011;14206;50.202;10.948;2022-09-13T00:30:24;3.00;;;2.70;;
26540;SDS011;14206;50.202;10.948;2022-09-13T00:32:51;3.00;;;2.70;;
26540;SDS011;14206;50.202;10.948;2022-09-13T00:35:18;3.45;;;3.10;;
26540;SDS011;14206;50.202;10.948;2022-09-13T00:37:45;3.00;;;2.70;;
26540;SDS011;14206;50.202;10.948;2022-09-13T00:40:11;3.10;;;2.80;;
26540;SDS011;14206;50.202;10.948;2022-09-13T00:42:38;3.22;;;2.92;;
26540;SDS011;14206;50.202;10.948;2022-09-13T00:47:33;3.22;;;2.92;;
26540;SDS011;14206;50.202;10.948;2022-09-13T00:50:15;3.05;;;2.83;;
26540;SDS011;14206;50.202;10.948;2022-09-13T00:53:13;2.92;;;2.63;;
26540;SDS011;14206;50.202;10.948;2022-09-13T00:58:20;3.33;;;3.03;;
26540;SDS011;14206;50.202;10.948;2022-09-13T01:00:55;3.83;;;3.30;;
26540;SDS011;14206;50.202;10.948;2022-09-13T01:03:25;3.50;;;3.20;;
26540;SDS011;14206;50.202;10.948;2022-09-13T01:05:56;3.53;;;3.22;;
26540;SDS011;14206;50.202;10.948;2022-09-13T01:08:30;3.35;;;2.97;;
26540;SDS011;14206;50.202;10.948;2022-09-13T01:10:58;3.22;;;2.72;;
26540;SDS011;14206;50.202;10.948;2022-09-13T01:13:28;3.65;;;2.60;;
26540;SDS011;14206;50.202;10.948;2022-09-13T01:15:58;3.40;;;3.10;;
26540;SDS011;14206;50.202;10.948;2022-09-13T01:18:25;3.53;;;2.97;;
26540;SDS011;14206;50.202;10.948;2022-09-13T01:26:46;3.53;;;3.20;;
26540;SDS011;14206;50.202;10.948;2022-09-13T01:35:01;3.40;;;2.92;;
26540;SDS011;14206;50.202;10.948;2022-09-13T01:38:10;3.33;;;3.03;;
26540;SDS011;14206;50.202;10.948;2022-09-13T01:46:26;2.97;;;2.67;;
26540;SDS011;14206;50.202;10.948;2022-09-13T01:51:53;2.95;;;2.60;;
26540;SDS011;14206;50.202;10.948;2022-09-13T01:54:37;3.75;;;3.10;;
26540;SDS011;14206;50.202;10.948;2022-09-13T02:02:47;3.15;;;2.85;;
26540;SDS011;14206;50.202;10.948;2022-09-13T02:10:51;4.20;;;3.08;;
26540;SDS011;14206;50.202;10.948;2022-09-13T02:13:25;3.15;;;2.85;;
26540;SDS011;14206;50.202;10.948;2022-09-13T02:15:58;3.30;;;2.70;;
26540;SDS011;14206;50.202;10.948;2022-09-13T02:18:33;2.92;;;2.63;;
26540;SDS011;14206;50.202;10.948;2022-09-13T02:21:11;2.92;;;2.60;;
26540;SDS011;14206;50.202;10.948;2022-09-13T02:24:09;3.20;;;2.90;;
26540;SDS011;14206;50.202;10.948;2022-09-13T02:26:39;3.28;;;2.97;;
26540;SDS011;14206;50.202;10.948;2022-09-13T02:29:09;3.15;;;2.85;;
26540;SDS011;14206;50.202;10.948;2022-09-13T02:32:04;3.40;;;3.10;;
26540;SDS011;14206;50.202;10.948;2022-09-13T02:34:33;2.97;;;2.70;;
26540;SDS011;14206;50.202;10.948;2022-09-13T02:37:07;3.72;;;2.85;;
26540;SDS011;14206;50.202;10.948;2022-09-13T02:39:37;3.42;;;3.13;;
26540;SDS011;14206;50.202;10.948;2022-09-13T02:42:16;3.10;;;2.80;;
26540;SDS011;14206;50.202;10.948;2022-09-13T02:44:56;3.38;;;3.05;;
26540;SDS011;14206;50.202;10.948;2022-09-13T02:53:25;3.35;;;3.05;;
26540;SDS011;14206;50.202;10.948;2022-09-13T02:59:10;3.60;;;3.00;;
26540;SDS011;14206;50.202;10.948;2022-09-13T03:01:44;3.30;;;3.00;;
26540;SDS011;14206;50.202;10.948;2022-09-13T03:04:16;3.33;;;3.03;;
26540;SDS011;14206;50.202;10.948;2022-09-13T03:06:42;3.30;;;2.90;;
26540;SDS011;14206;50.202;10.948;2022-09-13T03:09:09;3.33;;;2.97;;
26540;SDS011;14206;50.202;10.948;2022-09-13T03:17:12;3.47;;;3.10;;
26540;SDS011;14206;50.202;10.948;2022-09-13T03:25:09;3.75;;;3.05;;
26540;SDS011;14206;50.202;10.948;2022-09-13T03:30:36;3.08;;;2.78;;
26540;SDS011;14206;50.202;10.948;2022-09-13T03:33:16;3.13;;;2.83;;
26540;SDS011;14206;50.202;10.948;2022-09-13T03:35:56;3.10;;;2.80;;
26540;SDS011;14206;50.202;10.948;2022-09-13T03:38:38;3.53;;;3.15;;
26540;SDS011;14206;50.202;10.948;2022-09-13T03:41:13;3.20;;;2.88;;
26540;SDS011;14206;50.202;10.948;2022-09-13T03:43:48;3.88;;;3.17;;
26540;SDS011;14206;50.202;10.948;2022-09-13T03:48:59;3.35;;;3.05;;
26540;SDS011;14206;50.202;10.948;2022-09-13T03:51:30;3.40;;;3.10;;
26540;SDS011;14206;50.202;10.948;2022-09-13T03:53:59;4.45;;;3.30;;
26540;SDS011;14206;50.202;10.948;2022-09-13T03:56:29;3.50;;;3.20;;
26540;SDS011;14206;50.202;10.948;2022-09-13T03:58:56;4.05;;;2.80;;
26540;SDS011;14206;50.202;10.948;2022-09-13T04:01:23;3.50;;;2.72;;
26540;SDS011;14206;50.202;10.948;2022-09-13T04:03:50;3.28;;;2.97;;
26540;SDS011;14206;50.202;10.948;2022-09-13T04:06:22;3.00;;;2.70;;
26540;SDS011;14206;50.202;10.948;2022-09-13T04:08:49;3.03;;;2.55;;
26540;SDS011;14206;50.202;10.948;2022-09-13T04:11:15;2.78;;;2.58;;
26540;SDS011;14206;50.202;10.948;2022-09-13T04:13:42;3.85;;;3.03;;
26540;SDS011;14206;50.202;10.948;2022-09-13T04:16:09;3.05;;;2.70;;
26540;SDS011;14206;50.202;10.948;2022-09-13T04:18:36;3.50;;;3.10;;
26540;SDS011;14206;50.202;10.948;2022-09-13T04:21:03;3.47;;;3.17;;
26540;SDS011;14206;50.202;10.948;2022-09-13T04:23:30;3.30;;;3.00;;
26540;SDS011;14206;50.202;10.948;2022-09-13T04:26:01;3.15;;;2.80;;
26540;SDS011;14206;50.202;10.948;2022-09-13T04:28:29;2.70;;;2.50;;
26540;SDS011;14206;50.202;10.948;2022-09-13T04:30:56;2.85;;;2.65;;
26540;SDS011;14206;50.202;10.948;2022-09-13T04:33:23;3.53;;;2.58;;
26540;SDS011;14206;50.202;10.948;2022-09-13T04:35:57;3.13;;;2.83;;
26540;SDS011;14206;50.202;10.948;2022-09-13T04:38:25;3.65;;;3.08;;
26540;SDS011;14206;50.202;10.948;2022-09-13T04:40:52;3.25;;;2.95;;
26540;SDS011;14206;50.202;10.948;2022-09-13T04:43:20;3.20;;;2.90;;
26540;SDS011;14206;50.202;10.948;2022-09-13T04:45:48;3.30;;;3.00;;
26540;SDS011;14206;50.202;10.948;2022-09-13T04:48:15;3.13;;;2.63;;
26540;SDS011;14206;50.202;10.948;2022-09-13T04:50:42;3.58;;;2.97;;
26540;SDS011;14206;50.202;10.948;2022-09-13T04:53:10;3.35;;;3.05;;
26540;SDS011;14206;50.202;10.948;2022-09-13T04:55:37;3.33;;;3.03;;
26540;SDS011;14206;50.202;10.948;2022-09-13T04:58:04;3.28;;;2.97;;
26540;SDS011;14206;50.202;10.948;2022-09-13T05:00:31;3.47;;;3.10;;
26540;SDS011;14206;50.202;10.948;2022-09-13T05:02:58;3.40;;;3.10;;
26540;SDS011;14206;50.202;10.948;2022-09-13T05:05:26;3.15;;;2.78;;
26540;SDS011;14206;50.202;10.948;2022-09-13T05:07:54;3.10;;;2.80;;
26540;SDS011;14206;50.202;10.948;2022-09-13T05:10:21;3.83;;;3.42;;
26540;SDS011;14206;50.202;10.948;2022-09-13T05:12:48;2.97;;;2.78;;
26540;SDS011;14206;50.202;10.948;2022-09-13T05:15:15;3.22;;;2.92;;
26540;SDS011;14206;50.202;10.948;2022-09-13T05:17:42;3.33;;;3.03;;
26540;SDS011;14206;50.202;10.948;2022-09-13T05:20:09;2.97;;;2.67;;
26540;SDS011;14206;50.202;10.948;2022-09-13T05:22:36;3.55;;;3.17;;
26540;SDS011;14206;50.202;10.948;2022-09-13T05:25:03;3.65;;;2.90;;
26540;SDS011;14206;50.202;10.948;2022-09-13T05:27:30;3.38;;;3.00;;
26540;SDS011;14206;50.202;10.948;2022-09-13T05:29:57;2.97;;;2.67;;
26540;SDS011;14206;50.202;10.948;2022-09-13T05:32:24;3.83;;;3.10;;
26540;SDS011;14206;50.202;10.948;2022-09-13T05:34:51;3.40;;;3.10;;
26540;SDS011;14206;50.202;10.948;2022-09-13T05:37:18;3.22;;;2.92;;
26540;SDS011;14206;50.202;10.948;2022-09-13T05:39:45;3.33;;;3.03;;
26540;SDS011;14206;50.202;10.948;2022-09-13T05:42:32;3.78;;;3.38;;
26540;SDS011;14206;50.202;10.948;2022-09-13T05:44:58;3.08;;;2.78;;
26540;SDS011;14206;50.202;10.948;2022-09-13T05:47:25;3.92;;;3.08;;
26540;SDS011;14206;50.202;10.948;2022-09-13T05:49:52;3.20;;;2.90;;
26540;SDS011;14206;50.202;10.948;2022-09-13T05:52:38;3.75;;;3.40;;
26540;SDS011;14206;50.202;10.948;2022-09-13T05:55:05;4.07;;;3.67;;
26540;SDS011;14206;50.202;10.948;2022-09-13T05:57:32;3.30;;;2.97;;
26540;SDS011;14206;50.202;10.948;2022-09-13T05:59:59;3.85;;;3.50;;
26540;SDS011;14206;50.202;10.948;2022-09-13T06:02:26;3.70;;;3.40;;
26540;SDS011;14206;50.202;10.948;2022-09-13T06:04:53;4.43;;;3.50;;
26540;SDS011;14206;50.202;10.948;2022-09-13T06:07:20;3.80;;;3.40;;
26540;SDS011;14206;50.202;10.948;2022-09-13T06:09:46;3.90;;;3.50;;
26540;SDS011;14206;50.202;10.948;2022-09-13T06:12:13;4.05;;;3.40;;
26540;SDS011;14206;50.202;10.948;2022-09-13T06:14:40;3.97;;;3.35;;
26540;SDS011;14206;50.202;10.948;2022-09-13T06:17:07;3.90;;;3.40;;
26540;SDS011;14206;50.202;10.948;2022-09-13T06:19:34;3.67;;;3.38;;
26540;SDS011;14206;50.202;10.948;2022-09-13T06:22:01;4.05;;;3.40;;
26540;SDS011;14206;50.202;10.948;2022-09-13T06:24:28;3.72;;;3.42;;
26540;SDS011;14206;50.202;10.948;2022-09-13T06:26:56;3.47;;;3.17;;
26540;SDS011;14206;50.202;10.948;2022-09-13T06:29:23;3.83;;;3.20;;
26540;SDS011;14206;50.202;10.948;2022-09-13T06:31:50;3.90;;;3.47;;
26540;SDS011;14206;50.202;10.948;2022-09-13T06:34:17;3.55;;;3.25;;
26540;SDS011;14206;50.202;10.948;2022-09-13T06:36:43;3.85;;;3.33;;
26540;SDS011;14206;50.202;10.948;2022-09-13T06:39:10;4.30;;;3.40;;
26540;SDS011;14206;50.202;10.948;2022-09-13T06:41:37;3.88;;;3.42;;
26540;SDS011;14206;50.202;10.948;2022-09-13T06:44:04;4.55;;;3.60;;
26540;SDS011;14206;50.202;10.948;2022-09-13T06:46:32;4.43;;;3.70;;
26540;SDS011;14206;50.202;10.948;2022-09-13T06:49:01;4.95;;;3.60;;
26540;SDS011;14206;50.202;10.948;2022-09-13T06:51:30;3.38;;;3.08;;
26540;SDS011;14206;50.202;10.948;2022-09-13T06:53:58;4.75;;;3.20;;
26540;SDS011;14206;50.202;10.948;2022-09-13T06:56:29;3.85;;;3.38;;
26540;SDS011;14206;50.202;10.948;2022-09-13T06:58:58;3.92;;;3.63;;
26540;SDS011;14206;50.202;10.948;2022-09-13T07:01:28;3.83;;;3.47;;
26540;SDS011;14206;50.202;10.948;2022-09-13T07:03:59;3.72;;;3.20;;
26540;SDS011;14206;50.202;10.948;2022-09-13T07:06:29;3.47;;;3.17;;
26540;SDS011;14206;50.202;10.948;2022-09-13T07:08:58;3.60;;;3.17;;
26540;SDS011;14206;50.202;10.948;2022-09-13T07:11:28;3.33;;;2.85;;
26540;SDS011;14206;50.202;10.948;2022-09-13T07:13:57;3.58;;;3.28;;
26540;SDS011;14206;50.202;10.948;2022-09-13T07:16:29;3.75;;;3.35;;
26540;SDS011;14206;50.202;10.948;2022-09-13T07:18:58;3.67;;;3.38;;
26540;SDS011;14206;50.202;10.948;2022-09-13T07:21:26;3.80;;;3.50;;
26540;SDS011;14206;50.202;10.948;2022-09-13T07:23:54;3.83;;;3.50;;
26540;SDS011;14206;50.202;10.948;2022-09-13T07:26:22;4.07;;;3.75;;
26540;SDS011;14206;50.202;10.948;2022-09-13T07:28:51;4.25;;;3.85;;
26540;SDS011;14206;50.202;10.948;2022-09-13T07:31:21;3.58;;;3.28;;
26540;SDS011;14206;50.202;10.948;2022-09-13T07:33:53;4.05;;;3.65;;
26540;SDS011;14206;50.202;10.948;2022-09-13T07:36:21;3.85;;;3.50;;
26540;SDS011;14206;50.202;10.948;2022-09-13T07:38:49;3.60;;;3.30;;
26540;SDS011;14206;50.202;10.948;2022-09-13T07:41:17;4.07;;;3.67;;
26540;SDS011;14206;50.202;10.948;2022-09-13T07:43:49;3.80;;;3.47;;
26540;SDS011;14206;50.202;10.948;2022-09-13T07:46:24;3.30;;;3.00;;
26540;SDS011;14206;50.202;10.948;2022-09-13T07:48:53;4.65;;;3.45;;
26540;SDS011;14206;50.202;10.948;2022-09-13T07:51:22;4.15;;;3.20;;
26540;SDS011;14206;50.202;10.948;2022-09-13T07:53:54;3.28;;;2.97;;
26540;SDS011;14206;50.202;10.948;2022-09-13T07:56:24;3.00;;;2.70;;
26540;SDS011;14206;50.202;10.948;2022-09-13T07:58:57;2.90;;;2.70;;
26540;SDS011;14206;50.202;10.948;2022-09-13T08:01:29;3.30;;;3.00;;
26540;SDS011;14206;50.202;10.948;2022-09-13T08:04:00;2.70;;;2.50;;
26540;SDS011;14206;50.202;10.948;2022-09-13T08:06:30;3.33;;;2.88;;
26540;SDS011;14206;50.202;10.948;2022-09-13T08:08:57;2.60;;;2.40;;
26540;SDS011;14206;50.202;10.948;2022-09-13T08:11:26;2.47;;;2.28;;
26540;SDS011;14206;50.202;10.948;2022-09-13T08:13:58;2.92;;;2.72;;
26540;SDS011;14206;50.202;10.948;2022-09-13T08:16:26;2.67;;;2.47;;
26540;SDS011;14206;50.202;10.948;2022-09-13T08:18:54;2.80;;;2.60;;
26540;SDS011;14206;50.202;10.948;2022-09-13T08:21:24;2.90;;;2.70;;
26540;SDS011;14206;50.202;10.948;2022-09-13T08:23:54;2.67;;;2.47;;
26540;SDS011;14206;50.202;10.948;2022-09-13T08:26:22;2.35;;;2.20;;
26540;SDS011;14206;50.202;10.948;2022-09-13T08:28:49;3.25;;;2.15;;
26540;SDS011;14206;50.202;10.948;2022-09-13T08:31:20;3.15;;;2.70;;
26540;SDS011;14206;50.202;10.948;2022-09-13T08:33:48;3.03;;;2.50;;
26540;SDS011;14206;50.202;10.948;2022-09-13T08:36:16;2.92;;;2.72;;
26540;SDS011;14206;50.202;10.948;2022-09-13T08:38:44;3.08;;;2.50;;
26540;SDS011;14206;50.202;10.948;2022-09-13T08:43:59;3.22;;;2.92;;
26540;SDS011;14206;50.202;10.948;2022-09-13T08:46:31;3.40;;;3.10;;
26540;SDS011;14206;50.202;10.948;2022-09-13T08:49:02;3.45;;;3.15;;
26540;SDS011;14206;50.202;10.948;2022-09-13T08:51:43;3.85;;;3.55;;
26540;SDS011;14206;50.202;10.948;2022-09-13T08:54:15;3.65;;;3.35;;
26540;SDS011;14206;50.202;10.948;2022-09-13T08:59:25;3.90;;;3.50;;
26540;SDS011;14206;50.202;10.948;2022-09-13T09:05:18;4.97;;;4.47;;
26540;SDS011;14206;50.202;10.948;2022-09-13T09:07:50;4.35;;;3.90;;
26540;SDS011;14206;50.202;10.948;2022-09-13T09:10:34;3.60;;;3.30;;
26540;SDS011;14206;50.202;10.948;2022-09-13T09:15:42;3.47;;;3.17;;
26540;SDS011;14206;50.202;10.948;2022-09-13T09:20:49;5.13;;;4.00;;
26540;SDS011;14206;50.202;10.948;2022-09-13T09:23:20;4.18;;;3.78;;
26540;SDS011;14206;50.202;10.948;2022-09-13T09:25:49;4.10;;;3.30;;
26540;SDS011;14206;50.202;10.948;2022-09-13T09:28:36;4.00;;;3.60;;
26540;SDS011;14206;50.202;10.948;2022-09-13T09:31:03;3.95;;;3.40;;
26540;SDS011;14206;50.202;10.948;2022-09-13T09:38:53;3.35;;;2.97;;
26540;SDS011;14206;50.202;10.948;2022-09-13T09:41:24;3.30;;;3.00;;
26540;SDS011;14206;50.202;10.948;2022-09-13T09:46:23;3.15;;;2.85;;
26540;SDS011;14206;50.202;10.948;2022-09-13T09:48:55;3.80;;;2.80;;
26540;SDS011;14206;50.202;10.948;2022-09-13T09:52:04;5.80;;;3.15;;
26540;SDS011;14206;50.202;10.948;2022-09-13T09:54:34;3.97;;;3.63;;
26540;SDS011;14206;50.202;10.948;2022-09-13T09:57:01;3.28;;;2.97;;
26540;SDS011;14206;50.202;10.948;2022-09-13T09:59:29;3.63;;;3.33;;
26540;SDS011;14206;50.202;10.948;2022-09-13T10:01:58;4.13;;;3.20;;
26540;SDS011;14206;50.202;10.948;2022-09-13T10:04:27;3.53;;;2.83;;
26540;SDS011;14206;50.202;10.948;2022-09-13T10:09:59;3.67;;;3.30;;
26540;SDS011;14206;50.202;10.948;2022-09-13T10:12:48;3.33;;;3.03;;
26540;SDS011;14206;50.202;10.948;2022-09-13T10:15:19;4.18;;;3.78;;
26540;SDS011;14206;50.202;10.948;2022-09-13T10:23:45;3.65;;;3.33;;
26540;SDS011;14206;50.202;10.948;2022-09-13T10:26:16;4.90;;;4.35;;
26540;SDS011;14206;50.202;10.948;2022-09-13T10:31:18;3.97;;;3.63;;
26540;SDS011;14206;50.202;10.948;2022-09-13T10:36:17;6.00;;;4.38;;
26540;SDS011;14206;50.202;10.948;2022-09-13T10:39:12;4.20;;;3.80;;
26540;SDS011;14206;50.202;10.948;2022-09-13T10:41:47;3.90;;;3.55;;
26540;SDS011;14206;50.202;10.948;2022-09-13T10:44:45;3.50;;;3.20;;
26540;SDS011;14206;50.202;10.948;2022-09-13T10:49:52;5.20;;;4.70;;
26540;SDS011;14206;50.202;10.948;2022-09-13T10:52:31;3.75;;;3.45;;
26540;SDS011;14206;50.202;10.948;2022-09-13T10:57:44;3.03;;;2.72;;
26540;SDS011;14206;50.202;10.948;2022-09-13T11:00:16;3.55;;;3.25;;
26540;SDS011;14206;50.202;10.948;2022-09-13T11:11:04;2.67;;;2.47;;
26540;SDS011;14206;50.202;10.948;2022-09-13T11:27:59;3.10;;;2.80;;
26540;SDS011;14206;50.202;10.948;2022-09-13T11:30:35;2.42;;;2.22;;
26540;SDS011;14206;50.202;10.948;2022-09-13T11:44:21;2.58;;;2.33;;
26540;SDS011;14206;50.202;10.948;2022-09-13T12:01:07;2.70;;;2.50;;
26540;SDS011;14206;50.202;10.948;2022-09-13T12:06:15;2.70;;;2.50;;
26540;SDS011;14206;50.202;10.948;2022-09-13T12:09:22;3.13;;;2.10;;
26540;SDS011;14206;50.202;10.948;2022-09-13T12:11:52;2.08;;;1.88;;
26540;SDS011;14206;50.202;10.948;2022-09-13T12:14:25;2.80;;;2.60;;
26540;SDS011;14206;50.202;10.948;2022-09-13T12:16:57;2.35;;;2.10;;
26540;SDS011;14206;50.202;10.948;2022-09-13T12:19:42;2.10;;;1.93;;
26540;SDS011;14206;50.202;10.948;2022-09-13T12:22:12;3.80;;;2.63;;
26540;SDS011;14206;50.202;10.948;2022-09-13T12:24:45;2.53;;;2.33;;
26540;SDS011;14206;50.202;10.948;2022-09-13T12:27:24;2.90;;;2.70;;
26540;SDS011;14206;50.202;10.948;2022-09-13T12:32:45;3.03;;;2.35;;
26540;SDS011;14206;50.202;10.948;2022-09-13T12:35:27;3.20;;;2.90;;
26540;SDS011;14206;50.202;10.948;2022-09-13T12:57:21;2.33;;;2.13;;
26540;SDS011;14206;50.202;10.948;2022-09-13T13:05:40;2.90;;;2.60;;
26540;SDS011;14206;50.202;10.948;2022-09-13T13:08:23;3.22;;;2.30;;
26540;SDS011;14206;50.202;10.948;2022-09-13T13:10:59;2.10;;;1.90;;
26540;SDS011;14206;50.202;10.948;2022-09-13T13:13:59;2.38;;;2.15;;
26540;SDS011;14206;50.202;10.948;2022-09-13T13:16:35;2.03;;;1.92;;
26540;SDS011;14206;50.202;10.948;2022-09-13T13:27:58;1.85;;;1.67;;
26540;SDS011;14206;50.202;10.948;2022-09-13T13:31:08;1.95;;;1.60;;
26540;SDS011;14206;50.202;10.948;2022-09-13T13:33:21;2.13;;;1.67;;
26540;SDS011;14206;50.202;10.948;2022-09-13T13:35:51;1.92;;;1.83;;
26540;SDS011;14206;50.202;10.948;2022-09-13T13:41:02;1.73;;;1.63;;
26540;SDS011;14206;50.202;10.948;2022-09-13T13:43:50;1.70;;;1.60;;
26540;SDS011;14206;50.202;10.948;2022-09-13T13:48:47;1.40;;;1.30;;
26540;SDS011;14206;50.202;10.948;2022-09-13T13:51:23;1.75;;;1.60;;
26540;SDS011;14206;50.202;10.948;2022-09-13T13:53:53;2.03;;;1.80;;
26540;SDS011;14206;50.202;10.948;2022-09-13T13:56:34;1.92;;;1.73;;
26540;SDS011;14206;50.202;10.948;2022-09-13T13:59:14;2.40;;;2.20;;
26540;SDS011;14206;50.202;10.948;2022-09-13T14:01:49;3.05;;;1.70;;
26540;SDS011;14206;50.202;10.948;2022-09-13T14:08:06;1.83;;;1.70;;
26540;SDS011;14206;50.202;10.948;2022-09-13T14:11:05;2.42;;;1.75;;
26540;SDS011;14206;50.202;10.948;2022-09-13T14:19:33;1.98;;;1.70;;
26540;SDS011;14206;50.202;10.948;2022-09-13T14:22:13;1.50;;;1.40;;
26540;SDS011;14206;50.202;10.948;2022-09-13T14:24:54;1.50;;;1.40;;
26540;SDS011;14206;50.202;10.948;2022-09-13T14:27:23;1.92;;;1.52;;
26540;SDS011;14206;50.202;10.948;2022-09-13T14:29:53;1.55;;;1.40;;
26540;SDS011;14206;50.202;10.948;2022-09-13T14:32:26;1.63;;;1.40;;
26540;SDS011;14206;50.202;10.948;2022-09-13T14:35:05;1.60;;;1.50;;
26540;SDS011;14206;50.202;10.948;2022-09-13T14:37:34;1.65;;;1.52;;
26540;SDS011;14206;50.202;10.948;2022-09-13T14:40:16;1.58;;;1.30;;
26540;SDS011;14206;50.202;10.948;2022-09-13T14:42:53;1.60;;;1.40;;
26540;SDS011;14206;50.202;10.948;2022-09-13T14:45:23;1.33;;;1.23;;
26540;SDS011;14206;50.202;10.948;2022-09-13T14:48:11;1.20;;;1.10;;
26540;SDS011;14206;50.202;10.948;2022-09-13T14:50:53;1.50;;;1.25;;
26540;SDS011;14206;50.202;10.948;2022-09-13T14:53:23;1.75;;;1.30;;
26540;SDS011;14206;50.202;10.948;2022-09-13T14:55:53;1.33;;;1.20;;
26540;SDS011;14206;50.202;10.948;2022-09-13T14:58:28;1.65;;;1.30;;
26540;SDS011;14206;50.202;10.948;2022-09-13T15:01:03;1.35;;;1.13;;
26540;SDS011;14206;50.202;10.948;2022-09-13T15:03:34;2.00;;;1.40;;
26540;SDS011;14206;50.202;10.948;2022-09-13T15:06:02;1.50;;;1.40;;
26540;SDS011;14206;50.202;10.948;2022-09-13T15:11:01;1.30;;;1.20;;
26540;SDS011;14206;50.202;10.948;2022-09-13T15:13:32;1.10;;;1.10;;
26540;SDS011;14206;50.202;10.948;2022-09-13T15:16:00;1.20;;;1.10;;
26540;SDS011;14206;50.202;10.948;2022-09-13T15:18:31;1.20;;;1.10;;
26540;SDS011;14206;50.202;10.948;2022-09-13T15:21:05;1.50;;;1.40;;
26540;SDS011;14206;50.202;10.948;2022-09-13T15:23:48;1.30;;;1.20;;
26540;SDS011;14206;50.202;10.948;2022-09-13T15:26:22;1.50;;;1.40;;
26540;SDS011;14206;50.202;10.948;2022-09-13T15:31:20;1.90;;;1.33;;
26540;SDS011;14206;50.202;10.948;2022-09-13T15:34:09;1.65;;;1.10;;
26540;SDS011;14206;50.202;10.948;2022-09-13T15:36:42;1.75;;;1.30;;
26540;SDS011;14206;50.202;10.948;2022-09-13T15:39:20;1.08;;;1.05;;
26540;SDS011;14206;50.202;10.948;2022-09-13T15:41:54;1.40;;;1.00;;
26540;SDS011;14206;50.202;10.948;2022-09-13T15:44:26;1.50;;;1.13;;
26540;SDS011;14206;50.202;10.948;2022-09-13T15:46:56;1.50;;;1.00;;
26540;SDS011;14206;50.202;10.948;2022-09-13T15:49:28;2.38;;;1.30;;
26540;SDS011;14206;50.202;10.948;2022-09-13T15:51:56;1.50;;;1.30;;
26540;SDS011;14206;50.202;10.948;2022-09-13T15:54:37;1.08;;;1.05;;
26540;SDS011;14206;50.202;10.948;2022-09-13T15:57:07;1.27;;;1.02;;
26540;SDS011;14206;50.202;10.948;2022-09-13T15:59:39;1.52;;;1.00;;
26540;SDS011;14206;50.202;10.948;2022-09-13T16:02:20;1.63;;;1.02;;
26540;SDS011;14206;50.202;10.948;2022-09-13T16:04:53;4.07;;;1.20;;
26540;SDS011;14206;50.202;10.948;2022-09-13T16:07:21;1.60;;;1.10;;
26540;SDS011;14206;50.202;10.948;2022-09-13T16:09:48;1.30;;;1.20;;
26540;SDS011;14206;50.202;10.948;2022-09-13T16:12:15;1.30;;;1.20;;
26540;SDS011;14206;50.202;10.948;2022-09-13T16:14:44;1.48;;;1.38;;
26540;SDS011;14206;50.202;10.948;2022-09-13T16:17:13;1.45;;;1.30;;
26540;SDS011;14206;50.202;10.948;2022-09-13T16:19:47;1.25;;;1.10;;
26540;SDS011;14206;50.202;10.948;2022-09-13T16:22:14;1.45;;;1.00;;
26540;SDS011;14206;50.202;10.948;2022-09-13T16:24:41;1.35;;;1.25;;
26540;SDS011;14206;50.202;10.948;2022-09-13T16:27:08;0.90;;;0.82;;
26540;SDS011;14206;50.202;10.948;2022-09-13T16:29:38;0.90;;;0.90;;
26540;SDS011;14206;50.202;10.948;2022-09-13T16:32:05;1.02;;;0.93;;
26540;SDS011;14206;50.202;10.948;2022-09-13T16:34:32;0.95;;;0.80;;
26540;SDS011;14206;50.202;10.948;2022-09-13T16:36:59;0.93;;;0.80;;
26540;SDS011;14206;50.202;10.948;2022-09-13T16:39:26;0.80;;;0.80;;
26540;SDS011;14206;50.202;10.948;2022-09-13T16:41:53;0.93;;;0.93;;
26540;SDS011;14206;50.202;10.948;2022-09-13T16:44:20;0.63;;;0.63;;
26540;SDS011;14206;50.202;10.948;2022-09-13T16:46:46;0.73;;;0.70;;
26540;SDS011;14206;50.202;10.948;2022-09-13T16:49:14;0.70;;;0.60;;
26540;SDS011;14206;50.202;10.948;2022-09-13T16:51:40;1.98;;;0.75;;
26540;SDS011;14206;50.202;10.948;2022-09-13T16:54:07;0.70;;;0.70;;
26540;SDS011;14206;50.202;10.948;2022-09-13T16:56:34;1.15;;;1.02;;
26540;SDS011;14206;50.202;10.948;2022-09-13T16:59:01;2.35;;;1.40;;
26540;SDS011;14206;50.202;10.948;2022-09-13T17:01:28;1.77;;;1.40;;
26540;SDS011;14206;50.202;10.948;2022-09-13T17:03:56;2.17;;;1.52;;
26540;SDS011;14206;50.202;10.948;2022-09-13T17:06:23;1.55;;;1.45;;
26540;SDS011;14206;50.202;10.948;2022-09-13T17:08:55;1.63;;;1.00;;
26540;SDS011;14206;50.202;10.948;2022-09-13T17:13:55;0.93;;;0.93;;
26540;SDS011;14206;50.202;10.948;2022-09-13T17:16:23;2.00;;;1.30;;
26540;SDS011;14206;50.202;10.948;2022-09-13T17:18:55;2.15;;;1.30;;
26540;SDS011;14206;50.202;10.948;2022-09-13T17:21:24;2.35;;;1.45;;
26540;SDS011;14206;50.202;10.948;2022-09-13T17:23:52;1.00;;;1.00;;
26540;SDS011;14206;50.202;10.948;2022-09-13T17:26:20;0.70;;;0.70;;
26540;SDS011;14206;50.202;10.948;2022-09-13T17:28:47;0.75;;;0.75;;
26540;SDS011;14206;50.202;10.948;2022-09-13T17:31:14;0.70;;;0.70;;
26540;SDS011;14206;50.202;10.948;2022-09-13T17:33:41;0.60;;;0.60;;
26540;SDS011;14206;50.202;10.948;2022-09-13T17:36:09;0.80;;;0.80;;
26540;SDS011;14206;50.202;10.948;2022-09-13T17:38:39;1.20;;;1.15;;
26540;SDS011;14206;50.202;10.948;2022-09-13T17:41:10;1.13;;;1.02;;
26540;SDS011;14206;50.202;10.948;2022-09-13T17:43:39;1.60;;;0.90;;
26540;SDS011;14206;50.202;10.948;2022-09-13T17:46:18;1.52;;;1.10;;
26540;SDS011;14206;50.202;10.948;2022-09-13T17:48:48;1.20;;;1.10;;
26540;SDS011;14206;50.202;10.948;2022-09-13T17:51:17;0.95;;;0.90;;
26540;SDS011;14206;50.202;10.948;2022-09-13T17:53:50;0.85;;;0.70;;
26540;SDS011;14206;50.202;10.948;2022-09-13T17:56:23;1.00;;;1.00;;
26540;SDS011;14206;50.202;10.948;2022-09-13T17:59:06;0.90;;;0.90;;
26540;SDS011;14206;50.202;10.948;2022-09-13T18:01:36;1.10;;;1.00;;
26540;SDS011;14206;50.202;10.948;2022-09-13T18:04:05;1.20;;;1.10;;
26540;SDS011;14206;50.202;10.948;2022-09-13T18:06:36;1.35;;;0.93;;
26540;SDS011;14206;50.202;10.948;2022-09-13T18:09:06;1.38;;;0.73;;
26540;SDS011;14206;50.202;10.948;2022-09-13T18:11:33;1.48;;;0.80;;
26540;SDS011;14206;50.202;10.948;2022-09-13T18:14:00;1.27;;;0.80;;
26540;SDS011;14206;50.202;10.948;2022-09-13T18:16:27;0.82;;;0.82;;
26540;SDS011;14206;50.202;10.948;2022-09-13T18:18:55;0.98;;;0.88;;
26540;SDS011;14206;50.202;10.948;2022-09-13T18:21:23;1.33;;;1.10;;
26540;SDS011;14206;50.202;10.948;2022-09-13T18:23:52;1.10;;;0.98;;
26540;SDS011;14206;50.202;10.948;2022-09-13T18:26:23;2.80;;;1.25;;
26540;SDS011;14206;50.202;10.948;2022-09-13T18:28:55;1.20;;;1.10;;
26540;SDS011;14206;50.202;10.948;2022-09-13T18:31:27;1.08;;;0.70;;